createdAt,value
2022-12-09T00:00:22.712Z,24.63
2022-12-09T00:02:54.892Z,28.05
2022-12-09T00:05:27.451Z,26.95
2022-12-09T00:07:59.496Z,24.35
2022-12-09T00:10:31.706Z,30.62
2022-12-09T00:13:03.962Z,25.75
2022-12-09T00:15:36.203Z,28.17
2022-12-09T00:18:09.174Z,29.92
2022-12-09T00:20:41.634Z,31.57
2022-12-09T00:23:13.658Z,30.80
2022-12-09T00:25:45.988Z,29.05
2022-12-09T00:28:18.131Z,31.48
2022-12-09T00:30:50.292Z,27.22
2022-12-09T00:33:22.497Z,24.10
2022-12-09T00:35:54.722Z,29.35
2022-12-09T00:38:27.133Z,30.05
2022-12-09T00:40:59.657Z,25.65
2022-12-09T00:43:32.280Z,27.25
2022-12-09T00:46:04.863Z,28.55
2022-12-09T00:48:38.824Z,25.60
2022-12-09T00:53:44.176Z,35.80
2022-12-09T00:56:16.909Z,25.68
2022-12-09T00:58:49.154Z,30.55
2022-12-09T01:01:21.754Z,25.82
2022-12-09T01:03:54.321Z,19.62
2022-12-09T01:06:28.130Z,24.50
2022-12-09T01:09:00.725Z,20.80
2022-12-09T01:11:32.958Z,20.45
2022-12-09T01:14:05.758Z,22.05
2022-12-09T01:16:38.313Z,26.40
2022-12-09T01:19:13.679Z,21.97
2022-12-09T01:21:45.773Z,25.32
2022-12-09T01:24:17.761Z,22.40
2022-12-09T01:26:50.745Z,18.12
2022-12-09T01:29:24.110Z,25.08
2022-12-09T01:31:57.410Z,22.67
2022-12-09T01:37:01.491Z,18.40
2022-12-09T01:39:34.610Z,19.23
2022-12-09T01:42:08.070Z,19.30
2022-12-09T01:44:40.470Z,20.17
2022-12-09T01:47:15.752Z,15.98
2022-12-09T01:49:48.419Z,16.95
2022-12-09T01:52:23.833Z,18.98
2022-12-09T01:54:56.832Z,20.77
2022-12-09T01:57:29.030Z,18.32
2022-12-09T02:00:01.319Z,16.75
2022-12-09T02:02:38.870Z,23.35
2022-12-09T02:05:12.135Z,16.75
2022-12-09T02:07:45.676Z,13.65
2022-12-09T02:10:20.489Z,20.40
2022-12-09T02:13:07.355Z,18.45
2022-12-09T02:15:58.005Z,16.35
2022-12-09T02:18:45.600Z,20.55
2022-12-09T02:21:29.520Z,18.48
2022-12-09T02:24:20.727Z,17.87
2022-12-09T02:27:18.749Z,16.62
2022-12-09T02:29:54.077Z,17.32
2022-12-09T02:32:35.466Z,19.82
2022-12-09T02:35:18.586Z,20.32
2022-12-09T02:37:57.093Z,18.60
2022-12-09T02:40:36.830Z,15.55
2022-12-09T02:43:11.117Z,13.55
2022-12-09T02:45:45.236Z,27.52
2022-12-09T02:48:20.588Z,17.73
2022-12-09T02:50:55.357Z,19.75
2022-12-09T02:53:29.601Z,17.95
2022-12-09T02:56:03.310Z,26.17
2022-12-09T02:58:37.342Z,16.97
2022-12-09T03:01:22.259Z,26.87
2022-12-09T03:03:55.832Z,22.00
2022-12-09T03:06:30.897Z,29.90
2022-12-09T03:09:06.243Z,21.40
2022-12-09T03:11:40.957Z,17.82
2022-12-09T03:14:18.924Z,19.80
2022-12-09T03:17:06.208Z,20.82
2022-12-09T03:19:44.155Z,22.50
2022-12-09T03:22:19.120Z,19.75
2022-12-09T03:25:01.161Z,24.70
2022-12-09T03:27:41.263Z,21.83
2022-12-09T03:30:14.832Z,19.75
2022-12-09T03:32:48.982Z,25.40
2022-12-09T03:35:23.945Z,25.10
2022-12-09T03:37:56.608Z,24.32
2022-12-09T03:40:32.554Z,19.32
2022-12-09T03:43:07.844Z,28.47
2022-12-09T03:45:42.557Z,23.25
2022-12-09T03:48:15.432Z,19.95
2022-12-09T03:50:57.422Z,21.60
2022-12-09T03:53:47.376Z,21.55
2022-12-09T03:56:23.697Z,17.92
2022-12-09T03:58:57.883Z,22.10
2022-12-09T04:01:32.032Z,20.92
2022-12-09T04:06:37.360Z,27.48
2022-12-09T04:09:11.417Z,27.82
2022-12-09T04:11:46.414Z,26.87
2022-12-09T04:14:21.766Z,25.65
2022-12-09T04:16:57.601Z,40.12
2022-12-09T04:19:30.920Z,29.60
2022-12-09T04:22:06.281Z,29.12
2022-12-09T04:24:40.053Z,34.95
2022-12-09T04:27:14.587Z,25.90
2022-12-09T04:29:49.323Z,37.20
2022-12-09T04:32:23.792Z,37.03
2022-12-09T04:34:56.887Z,42.48
2022-12-09T04:37:30.154Z,47.03
2022-12-09T04:40:04.075Z,46.23
2022-12-09T04:42:37.837Z,38.15
2022-12-09T04:45:11.384Z,35.50
2022-12-09T04:50:17.299Z,45.78
2022-12-09T04:52:50.943Z,47.85
2022-12-09T04:55:26.964Z,46.35
2022-12-09T04:58:00.128Z,50.00
2022-12-09T05:00:36.247Z,44.67
2022-12-09T05:03:09.984Z,44.13
2022-12-09T05:05:43.261Z,42.17
2022-12-09T05:08:16.849Z,43.73
2022-12-09T05:10:51.250Z,44.65
2022-12-09T05:13:24.321Z,48.30
2022-12-09T05:16:12.123Z,45.17
2022-12-09T05:18:40.440Z,41.70
2022-12-09T05:21:16.646Z,49.33
2022-12-09T05:23:49.813Z,43.17
2022-12-09T05:26:24.333Z,50.00
2022-12-09T05:28:57.302Z,47.38
2022-12-09T05:31:31.898Z,49.40
2022-12-09T05:34:05.621Z,41.13
2022-12-09T05:36:39.400Z,47.35
2022-12-09T05:39:12.797Z,44.10
2022-12-09T05:41:47.447Z,45.12
2022-12-09T05:44:19.939Z,46.77
2022-12-09T05:46:52.883Z,45.10
2022-12-09T05:49:26.902Z,44.90
2022-12-09T05:54:33.538Z,47.10
2022-12-09T05:57:06.601Z,48.30
2022-12-09T05:59:40.305Z,49.63
2022-12-09T06:02:14.015Z,50.57
2022-12-09T06:04:47.530Z,38.28
2022-12-09T06:07:22.666Z,45.12
2022-12-09T06:09:56.477Z,43.17
2022-12-09T06:12:31.092Z,46.23
2022-12-09T06:15:04.062Z,48.70
2022-12-09T06:17:37.166Z,52.95
2022-12-09T06:20:10.279Z,40.60
2022-12-09T06:22:43.647Z,63.17
2022-12-09T06:25:16.977Z,38.38
2022-12-09T06:27:49.187Z,44.67
2022-12-09T06:30:22.287Z,37.28
2022-12-09T06:32:54.909Z,45.05
2022-12-09T06:35:28.665Z,49.20
2022-12-09T06:38:01.158Z,34.63
2022-12-09T06:40:34.090Z,46.18
2022-12-09T06:45:41.762Z,48.28
2022-12-09T06:48:16.206Z,49.45
2022-12-09T06:50:53.430Z,42.90
2022-12-09T06:53:26.529Z,42.27
2022-12-09T06:56:11.043Z,38.33
2022-12-09T06:58:41.208Z,49.03
2022-12-09T07:01:17.335Z,40.55
2022-12-09T07:03:54.771Z,46.35
2022-12-09T07:06:39.291Z,51.30
2022-12-09T07:09:20.333Z,51.98
2022-12-09T07:11:54.750Z,49.20
2022-12-09T07:14:27.665Z,41.53
2022-12-09T07:17:03.857Z,40.90
2022-12-09T07:19:37.162Z,43.35
2022-12-09T07:22:10.285Z,40.85
2022-12-09T07:24:43.932Z,46.88
2022-12-09T07:27:19.746Z,41.83
2022-12-09T07:29:52.308Z,36.17
2022-12-09T07:32:26.780Z,43.00
2022-12-09T07:35:00.399Z,44.18
2022-12-09T07:37:34.999Z,45.17
2022-12-09T07:40:09.975Z,41.28
2022-12-09T07:42:44.095Z,47.73
2022-12-09T07:45:17.157Z,39.70
2022-12-09T07:47:50.939Z,43.73
2022-12-09T07:50:26.022Z,37.78
2022-12-09T07:53:01.374Z,33.85
2022-12-09T07:55:36.800Z,32.25
2022-12-09T07:58:09.523Z,37.75
2022-12-09T08:00:42.244Z,39.25
2022-12-09T08:03:16.235Z,37.65
2022-12-09T08:08:23.660Z,42.88
2022-12-09T08:10:58.463Z,61.37
2022-12-09T08:16:08.617Z,37.98
2022-12-09T08:18:42.288Z,69.67
2022-12-09T08:21:21.966Z,39.55
2022-12-09T08:23:57.118Z,30.25
2022-12-09T08:26:33.288Z,38.23
2022-12-09T08:29:12.197Z,39.90
2022-12-09T08:31:45.598Z,32.65
2022-12-09T08:34:19.078Z,36.65
2022-12-09T08:36:52.967Z,33.02
2022-12-09T08:39:27.797Z,41.48
2022-12-09T08:42:00.938Z,41.25
2022-12-09T08:44:34.943Z,50.38
2022-12-09T08:47:07.563Z,32.23
2022-12-09T08:49:41.170Z,33.78
2022-12-09T08:52:14.276Z,40.85
2022-12-09T08:54:48.159Z,38.25
2022-12-09T08:57:26.931Z,36.60
2022-12-09T09:00:02.206Z,39.25
2022-12-09T09:02:35.656Z,35.52
2022-12-09T09:05:09.507Z,24.35
2022-12-09T09:07:42.844Z,35.65
2022-12-09T09:10:18.235Z,40.23
2022-12-09T09:12:51.360Z,39.38
2022-12-09T09:15:25.180Z,38.85
2022-12-09T09:18:00.436Z,41.80
2022-12-09T09:20:33.573Z,36.75
2022-12-09T09:23:06.187Z,25.07
2022-12-09T09:25:46.343Z,38.92
2022-12-09T09:28:20.023Z,32.60
2022-12-09T09:31:04.315Z,33.05
2022-12-09T09:33:37.283Z,42.45
2022-12-09T09:36:18.200Z,29.15
2022-12-09T09:38:53.283Z,35.05
2022-12-09T09:41:50.073Z,30.37
2022-12-09T09:44:40.434Z,28.60
2022-12-09T09:47:23.180Z,26.73
2022-12-09T09:50:17.472Z,25.70
2022-12-09T09:55:32.430Z,34.70
2022-12-09T09:58:23.156Z,28.60
2022-12-09T10:01:12.330Z,34.27
2022-12-09T10:03:51.156Z,34.38
2022-12-09T10:06:43.868Z,29.63
2022-12-09T10:09:23.244Z,34.08
2022-12-09T10:12:15.982Z,35.00
2022-12-09T10:14:55.222Z,35.92
2022-12-09T10:17:42.860Z,33.10
2022-12-09T10:20:19.011Z,31.52
2022-12-09T10:23:04.215Z,36.05
2022-12-09T10:25:40.930Z,38.23
2022-12-09T10:28:20.961Z,28.87
2022-12-09T10:30:55.799Z,28.50
2022-12-09T10:33:32.444Z,32.33
2022-12-09T10:36:07.794Z,32.38
2022-12-09T10:38:42.716Z,28.83
2022-12-09T10:41:28.930Z,40.03
2022-12-09T10:44:05.240Z,28.25
2022-12-09T10:46:37.960Z,34.67
2022-12-09T10:49:13.683Z,36.13
2022-12-09T10:51:51.755Z,56.37
2022-12-09T10:54:40.152Z,34.00
2022-12-09T10:57:16.414Z,46.73
2022-12-09T11:00:11.154Z,41.25
2022-12-09T11:02:47.740Z,40.28
2022-12-09T11:05:28.761Z,32.98
2022-12-09T11:08:03.253Z,37.48
2022-12-09T11:10:39.997Z,40.58
2022-12-09T11:13:16.904Z,27.50
2022-12-09T11:15:57.702Z,26.50
2022-12-09T11:18:33.935Z,30.40
2022-12-09T11:21:08.992Z,31.70
2022-12-09T11:23:45.545Z,27.35
2022-12-09T11:26:24.662Z,32.65
2022-12-09T11:29:04.727Z,31.52
2022-12-09T11:31:45.814Z,34.92
2022-12-09T11:34:26.526Z,30.05
2022-12-09T11:37:03.722Z,32.25
2022-12-09T11:39:38.933Z,25.10
2022-12-09T11:42:22.743Z,33.63
2022-12-09T11:45:06.278Z,31.73
2022-12-09T11:48:22.609Z,29.87
2022-12-09T11:50:26.091Z,27.15
2022-12-09T11:53:13.911Z,28.12
2022-12-09T11:55:52.530Z,20.97
2022-12-09T11:58:50.119Z,27.52
2022-12-09T12:01:29.363Z,24.77
2022-12-09T12:04:09.657Z,27.05
2022-12-09T12:06:56.263Z,30.88
2022-12-09T12:09:32.104Z,34.10
2022-12-09T12:12:17.560Z,32.67
2022-12-09T12:14:51.864Z,34.98
2022-12-09T12:20:14.965Z,29.60
2022-12-09T12:23:13.780Z,30.55
2022-12-09T12:26:16.773Z,32.10
2022-12-09T12:29:06.897Z,34.43
2022-12-09T12:31:54.471Z,31.45
2022-12-09T12:34:39.846Z,24.12
2022-12-09T12:37:30.912Z,28.77
2022-12-09T12:40:10.825Z,26.23
2022-12-09T12:42:48.335Z,29.98
2022-12-09T12:45:42.092Z,32.05
2022-12-09T12:48:18.819Z,40.83
2022-12-09T12:51:13.550Z,27.15
2022-12-09T12:56:32.298Z,31.62
2022-12-09T12:59:25.990Z,27.15
2022-12-09T13:02:21.296Z,26.10
2022-12-09T13:05:00.513Z,30.45
2022-12-09T13:07:45.890Z,27.13
2022-12-09T13:10:24.126Z,24.95
2022-12-09T13:13:01.246Z,25.65
2022-12-09T13:15:40.642Z,28.92
2022-12-09T13:18:16.729Z,27.30
2022-12-09T13:20:52.985Z,21.77
2022-12-09T13:23:46.750Z,25.12
2022-12-09T13:26:26.701Z,17.65
2022-12-09T13:29:35.754Z,27.22
2022-12-09T13:32:18.015Z,9.85
2022-12-09T13:34:55.076Z,24.63
2022-12-09T13:37:39.383Z,25.60
2022-12-09T13:40:24.340Z,32.10
2022-12-09T13:43:06.676Z,22.85
2022-12-09T13:45:47.817Z,22.27
2022-12-09T13:48:24.015Z,22.75
2022-12-09T13:51:00.351Z,24.87
2022-12-09T13:53:40.096Z,24.43
2022-12-09T13:56:29.444Z,21.23
2022-12-09T13:59:25.001Z,26.00
2022-12-09T14:02:17.927Z,26.27
2022-12-09T14:05:00.200Z,20.35
2022-12-09T14:07:38.208Z,25.15
2022-12-09T14:10:43.270Z,27.37
2022-12-09T14:13:31.536Z,24.52
2022-12-09T14:16:29.120Z,19.70
2022-12-09T14:19:21.542Z,25.52
2022-12-09T14:22:20.357Z,26.40
2022-12-09T14:24:56.469Z,23.52
2022-12-09T14:27:31.586Z,25.48
2022-12-09T14:30:07.885Z,15.03
2022-12-09T14:32:55.224Z,19.77
2022-12-09T14:35:49.410Z,19.65
2022-12-09T14:39:08.291Z,33.70
2022-12-09T14:41:30.649Z,19.87
2022-12-09T14:44:23.063Z,20.17
2022-12-09T14:47:03.334Z,22.60
2022-12-09T14:49:42.784Z,18.67
2022-12-09T14:52:16.457Z,21.90
2022-12-09T14:54:53.460Z,22.32
2022-12-09T14:57:30.298Z,19.42
2022-12-09T15:00:06.309Z,31.55
2022-12-09T15:02:38.872Z,25.52
2022-12-09T15:05:18.031Z,19.70
2022-12-09T15:07:52.449Z,22.40
2022-12-09T15:10:32.078Z,24.92
2022-12-09T15:13:03.977Z,27.02
2022-12-09T15:15:39.708Z,20.30
2022-12-09T15:18:24.288Z,22.37
2022-12-09T15:21:01.921Z,24.75
2022-12-09T15:23:41.294Z,18.57
2022-12-09T15:26:23.242Z,23.35
2022-12-09T15:28:59.770Z,24.90
2022-12-09T15:31:35.137Z,26.30
2022-12-09T15:34:15.217Z,27.10
2022-12-09T15:36:51.841Z,27.25
2022-12-09T15:39:31.047Z,20.32
2022-12-09T15:42:08.147Z,21.30
2022-12-09T15:45:03.920Z,21.37
2022-12-09T15:47:46.052Z,25.17
2022-12-09T15:50:33.427Z,23.87
2022-12-09T15:53:09.679Z,28.73
2022-12-09T15:55:45.308Z,31.75
2022-12-09T15:58:24.247Z,25.27
2022-12-09T16:00:58.160Z,24.35
2022-12-09T16:03:35.507Z,23.05
2022-12-09T16:06:10.164Z,23.45
2022-12-09T16:08:45.524Z,23.83
2022-12-09T16:11:39.270Z,26.37
2022-12-09T16:14:13.324Z,27.03
2022-12-09T16:16:49.172Z,23.52
2022-12-09T16:19:34.936Z,29.77
2022-12-09T16:22:11.405Z,20.92
2022-12-09T16:27:24.835Z,30.75
2022-12-09T16:30:01.200Z,30.30
2022-12-09T16:32:43.113Z,29.63
2022-12-09T16:35:19.950Z,29.65
2022-12-09T16:38:01.381Z,27.82
2022-12-09T16:40:49.130Z,30.10
2022-12-09T16:43:24.065Z,20.75
2022-12-09T16:46:00.322Z,41.88
2022-12-09T16:48:33.453Z,26.80
2022-12-09T16:51:18.248Z,29.35
2022-12-09T16:53:53.840Z,31.65
2022-12-09T16:56:28.714Z,29.37
2022-12-09T16:59:00.993Z,23.42
2022-12-09T17:01:36.947Z,28.35
2022-12-09T17:04:17.999Z,23.52
2022-12-09T17:06:50.354Z,21.80
2022-12-09T17:09:22.536Z,28.27
2022-12-09T17:11:54.749Z,23.80
2022-12-09T17:14:27.615Z,26.35
2022-12-09T17:17:03.368Z,25.62
2022-12-09T17:19:38.197Z,24.18
2022-12-09T17:22:10.520Z,23.40
2022-12-09T17:24:42.818Z,28.23
2022-12-09T17:27:14.880Z,29.12
2022-12-09T17:29:47.888Z,28.67
2022-12-09T17:32:20.262Z,35.20
2022-12-09T17:34:54.279Z,26.62
2022-12-09T17:37:26.555Z,27.70
2022-12-09T17:40:06.624Z,31.05
2022-12-09T17:42:33.885Z,32.50
2022-12-09T17:45:07.344Z,32.28
2022-12-09T17:47:39.618Z,23.67
2022-12-09T17:50:11.752Z,26.95
2022-12-09T17:52:43.806Z,32.78
2022-12-09T17:55:15.868Z,30.23
2022-12-09T17:57:53.931Z,33.60
2022-12-09T18:00:21.795Z,28.05
2022-12-09T18:02:53.757Z,28.02
2022-12-09T18:05:25.819Z,31.60
2022-12-09T18:07:58.393Z,33.42
2022-12-09T18:10:30.350Z,39.63
2022-12-09T18:13:03.026Z,31.77
2022-12-09T18:15:39.657Z,32.40
2022-12-09T18:18:12.186Z,31.65
2022-12-09T18:20:44.276Z,42.30
2022-12-09T18:23:16.373Z,32.10
2022-12-09T18:25:49.043Z,37.53
2022-12-09T18:28:21.112Z,39.90
2022-12-09T18:30:53.334Z,37.10
2022-12-09T18:33:25.995Z,21.93
2022-12-09T18:35:58.176Z,31.95
2022-12-09T18:38:30.742Z,27.93
2022-12-09T18:41:02.942Z,28.83
2022-12-09T18:43:38.129Z,32.65
2022-12-09T18:46:13.782Z,29.25
2022-12-09T18:48:46.840Z,32.88
2022-12-09T18:51:21.459Z,19.77
2022-12-09T18:53:54.591Z,25.25
2022-12-09T18:56:27.399Z,32.25
2022-12-09T18:59:08.968Z,33.10
2022-12-09T19:01:35.988Z,35.38
2022-12-09T19:04:09.329Z,27.87
2022-12-09T19:06:43.131Z,45.55
2022-12-09T19:09:18.191Z,36.93
2022-12-09T19:11:52.182Z,37.48
2022-12-09T19:14:25.464Z,31.48
2022-12-09T19:16:57.937Z,44.10
2022-12-09T19:19:30.798Z,28.15
2022-12-09T19:22:03.792Z,34.85
2022-12-09T19:24:42.678Z,35.17
2022-12-09T19:27:10.801Z,35.50
2022-12-09T19:29:42.946Z,35.60
2022-12-09T19:32:50.854Z,36.58
2022-12-09T19:34:48.628Z,26.45
2022-12-09T19:37:20.527Z,26.65
2022-12-09T19:39:53.245Z,31.05
2022-12-09T19:42:25.586Z,34.65
2022-12-09T19:45:02.334Z,41.55
2022-12-09T19:47:33.161Z,32.30
2022-12-09T19:50:05.939Z,29.95
2022-12-09T19:52:38.175Z,32.38
2022-12-09T19:55:10.847Z,32.38
2022-12-09T19:57:43.125Z,27.67
2022-12-09T20:00:15.750Z,29.27
2022-12-09T20:02:49.583Z,36.48
2022-12-09T20:05:21.674Z,38.58
2022-12-09T20:07:54.320Z,36.73
2022-12-09T20:10:26.325Z,32.35
2022-12-09T20:12:58.519Z,40.67
2022-12-09T20:15:30.783Z,37.33
2022-12-09T20:18:02.663Z,43.23
2022-12-09T20:20:36.225Z,36.50
2022-12-09T20:23:08.595Z,34.90
2022-12-09T20:25:40.995Z,42.25
2022-12-09T20:28:13.059Z,42.43
2022-12-09T20:30:45.690Z,38.17
2022-12-09T20:33:17.783Z,43.63
2022-12-09T20:35:49.964Z,42.78
2022-12-09T20:38:22.353Z,36.08
2022-12-09T20:40:54.382Z,50.90
2022-12-09T20:43:26.607Z,47.53
2022-12-09T20:45:58.625Z,36.28
2022-12-09T20:48:31.502Z,37.05
2022-12-09T20:51:08.101Z,33.63
2022-12-09T20:53:43.074Z,36.13
2022-12-09T20:56:15.722Z,41.90
2022-12-09T20:58:51.148Z,33.98
2022-12-09T21:01:26.180Z,37.00
2022-12-09T21:03:59.937Z,37.13
2022-12-09T21:06:35.037Z,32.75
2022-12-09T21:09:10.492Z,38.45
2022-12-09T21:11:42.980Z,36.38
2022-12-09T21:14:18.535Z,41.80
2022-12-09T21:16:53.634Z,40.90
2022-12-09T21:19:27.635Z,42.80
2022-12-09T21:22:00.362Z,33.18
2022-12-09T21:24:33.958Z,39.58
2022-12-09T21:27:06.545Z,35.92
2022-12-09T21:29:39.282Z,36.35
2022-12-09T21:32:11.229Z,40.75
2022-12-09T21:34:43.471Z,40.98
2022-12-09T21:37:15.629Z,34.58
2022-12-09T21:39:47.931Z,32.83
2022-12-09T21:42:19.937Z,32.75
2022-12-09T21:44:51.860Z,25.43
2022-12-09T21:47:24.351Z,32.10
2022-12-09T21:49:57.221Z,23.02
2022-12-09T21:52:29.791Z,34.63
2022-12-09T21:55:02.546Z,28.87
2022-12-09T21:57:36.273Z,38.28
2022-12-09T22:00:10.747Z,41.23
2022-12-09T22:02:44.613Z,37.48
2022-12-09T22:05:17.166Z,31.42
2022-12-09T22:07:50.909Z,38.60
2022-12-09T22:10:23.219Z,35.08
2022-12-09T22:12:56.013Z,35.90
2022-12-09T22:15:28.573Z,24.18
2022-12-09T22:18:01.469Z,24.72
2022-12-09T22:21:07.934Z,38.55
2022-12-09T22:23:07.895Z,25.32
2022-12-09T22:25:40.608Z,21.52
2022-12-09T22:28:12.808Z,25.27
2022-12-09T22:30:44.922Z,26.10
2022-12-09T22:33:17.145Z,24.90
2022-12-09T22:35:49.490Z,23.25
2022-12-09T22:38:22.353Z,26.20
2022-12-09T22:40:54.387Z,32.05
2022-12-09T22:43:27.351Z,35.58
2022-12-09T22:46:07.903Z,34.67
2022-12-09T22:48:41.057Z,34.65
2022-12-09T22:51:17.616Z,35.30
2022-12-09T22:53:51.290Z,37.85
2022-12-09T22:56:25.014Z,27.50
2022-12-09T22:58:57.257Z,29.82
2022-12-09T23:01:33.086Z,28.23
2022-12-09T23:04:07.053Z,30.65
2022-12-09T23:06:40.915Z,28.50
2022-12-09T23:09:16.204Z,31.80
2022-12-09T23:11:49.163Z,30.20
2022-12-09T23:14:22.070Z,29.25
2022-12-09T23:16:54.294Z,36.68
2022-12-09T23:19:26.887Z,29.85
2022-12-09T23:21:59.483Z,28.52
2022-12-09T23:24:31.736Z,27.15
2022-12-09T23:27:04.720Z,20.37
2022-12-09T23:29:36.963Z,27.05
2022-12-09T23:32:09.347Z,25.95
2022-12-09T23:34:41.589Z,25.37
2022-12-09T23:37:15.071Z,26.48
2022-12-09T23:39:49.115Z,25.95
2022-12-09T23:44:54.079Z,24.47
2022-12-09T23:47:26.667Z,24.43
2022-12-09T23:49:58.890Z,27.48
2022-12-09T23:52:30.941Z,30.77
2022-12-09T23:55:04.667Z,29.82
2022-12-09T23:57:36.903Z,26.80
